Time;durP1;ratioP1;P1;durP2;ratioP2;P2;SDS_P1;SDS_P2;PMS_P1;PMS_P2;Temp;Humidity;BMP_temperature;BMP_pressure;BME280_temperature;BME280_humidity;BME280_pressure;Samples;Min_cycle;Max_cycle;Signal;HPM_P1;HPM_P2
2023/08/26 00:01:57;;;;;;;0.30;0.30;;;;;;;;;;5073207;28;20198;-89
2023/08/26 00:04:26;;;;;;;0.77;0.77;;;;;;;;;;5073710;28;20221;-85
2023/08/26 00:06:54;;;;;;;0.37;0.37;;;;;;;;;;5073713;28;20192;-85
2023/08/26 00:09:24;;;;;;;0.40;0.40;;;;;;;;;;5073467;28;20225;-85
2023/08/26 00:11:53;;;;;;;0.30;0.30;;;;;;;;;;5072809;28;20205;-89
2023/08/26 00:14:21;;;;;;;1.23;0.53;;;;;;;;;;5073129;28;20186;-89
2023/08/26 00:16:51;;;;;;;0.30;0.30;;;;;;;;;;5073520;28;20229;-88
2023/08/26 00:19:20;;;;;;;0.30;0.30;;;;;;;;;;5072803;28;20197;-88
2023/08/26 00:21:50;;;;;;;6.40;2.30;;;;;;;;;;5073287;28;20259;-85
2023/08/26 00:24:19;;;;;;;4.27;2.13;;;;;;;;;;5072955;28;20193;-89
2023/08/26 00:26:49;;;;;;;1.77;1.50;;;;;;;;;;5073622;28;20273;-89
2023/08/26 00:29:17;;;;;;;0.40;0.40;;;;;;;;;;5073166;28;20251;-89
2023/08/26 00:31:46;;;;;;;0.60;0.60;;;;;;;;;;5073339;28;20192;-89
2023/08/26 00:34:14;;;;;;;0.40;0.40;;;;;;;;;;5073262;28;20251;-89
2023/08/26 00:36:43;;;;;;;0.50;0.50;;;;;;;;;;5072417;28;20311;-89
2023/08/26 00:39:11;;;;;;;0.70;0.70;;;;;;;;;;5073101;28;20208;-89
2023/08/26 00:41:40;;;;;;;0.83;0.80;;;;;;;;;;5073428;28;20204;-88
2023/08/26 00:44:10;;;;;;;2.27;1.63;;;;;;;;;;5073018;28;20216;-90
2023/08/26 00:46:39;;;;;;;0.70;0.70;;;;;;;;;;5073109;28;20205;-89
2023/08/26 00:49:07;;;;;;;0.60;0.60;;;;;;;;;;5072604;28;20205;-89
2023/08/26 00:51:36;;;;;;;0.47;0.47;;;;;;;;;;5072949;28;20218;-88
2023/08/26 00:54:06;;;;;;;1.67;1.57;;;;;;;;;;5072245;28;20234;-89
2023/08/26 00:56:34;;;;;;;0.67;0.67;;;;;;;;;;5072850;28;20217;-89
2023/08/26 00:59:03;;;;;;;2.23;1.43;;;;;;;;;;5072789;28;20205;-89
2023/08/26 01:01:33;;;;;;;0.50;0.50;;;;;;;;;;5072718;28;20210;-89
2023/08/26 01:04:02;;;;;;;1.37;1.00;;;;;;;;;;5072253;28;20232;-90
2023/08/26 01:06:31;;;;;;;7.20;2.03;;;;;;;;;;5072574;28;20195;-89
2023/08/26 01:08:59;;;;;;;1.80;1.70;;;;;;;;;;5072984;28;20323;-89
2023/08/26 01:11:32;;;;;;;1.63;1.53;;;;;;;;;;5072637;28;20205;-89
2023/08/26 01:14:04;;;;;;;3.77;2.77;;;;;;;;;;5072090;28;20194;-89
2023/08/26 01:16:40;;;;;;;4.63;2.10;;;;;;;;;;5072463;28;20214;-89
2023/08/26 01:19:11;;;;;;;3.40;2.10;;;;;;;;;;5071942;28;20213;-85
2023/08/26 01:21:41;;;;;;;4.37;2.43;;;;;;;;;;5071520;28;20202;-85
2023/08/26 01:24:12;;;;;;;6.50;2.50;;;;;;;;;;5071792;28;20201;-85
2023/08/26 01:26:43;;;;;;;2.77;1.73;;;;;;;;;;5072099;28;20233;-85
2023/08/26 01:29:11;;;;;;;1.40;1.30;;;;;;;;;;5071976;28;20314;-85
2023/08/26 01:31:40;;;;;;;2.67;2.10;;;;;;;;;;5070919;28;20203;-85
2023/08/26 01:34:12;;;;;;;3.27;1.63;;;;;;;;;;5072260;28;20200;-85
2023/08/26 01:36:43;;;;;;;2.17;1.97;;;;;;;;;;5071614;28;20263;-89
2023/08/26 01:39:14;;;;;;;1.93;1.80;;;;;;;;;;5071650;28;20204;-85
2023/08/26 01:41:45;;;;;;;3.40;2.17;;;;;;;;;;5072085;28;20211;-86
2023/08/26 01:44:14;;;;;;;13.00;10.00;;;;;;;;;;5071926;28;20197;-85
2023/08/26 01:46:42;;;;;;;2.17;1.73;;;;;;;;;;5071792;28;20196;-85
2023/08/26 01:49:11;;;;;;;6.27;2.30;;;;;;;;;;5071750;28;20202;-89
2023/08/26 01:51:40;;;;;;;2.03;1.83;;;;;;;;;;5071519;28;20291;-89
2023/08/26 01:54:08;;;;;;;3.07;2.40;;;;;;;;;;5071454;28;20234;-89
2023/08/26 01:56:38;;;;;;;3.47;2.60;;;;;;;;;;5071312;28;20197;-89
2023/08/26 01:59:07;;;;;;;3.67;1.73;;;;;;;;;;5072011;28;20258;-89
2023/08/26 02:01:35;;;;;;;5.13;2.43;;;;;;;;;;5071507;28;20193;-85
2023/08/26 02:04:04;;;;;;;2.50;2.30;;;;;;;;;;5071647;28;20293;-84
2023/08/26 02:06:32;;;;;;;5.93;3.67;;;;;;;;;;5071489;28;20201;-85
2023/08/26 02:09:01;;;;;;;9.93;3.70;;;;;;;;;;5072072;28;20357;-85
2023/08/26 02:11:29;;;;;;;7.63;3.93;;;;;;;;;;5071719;28;20200;-85
2023/08/26 02:13:59;;;;;;;4.17;3.43;;;;;;;;;;5071505;28;20198;-85
2023/08/26 02:16:27;;;;;;;6.20;4.00;;;;;;;;;;5071167;28;20239;-85
2023/08/26 02:18:56;;;;;;;4.63;2.77;;;;;;;;;;5071650;28;20222;-85
2023/08/26 02:21:24;;;;;;;6.00;3.30;;;;;;;;;;5071902;28;20201;-85
2023/08/26 02:23:54;;;;;;;4.30;3.90;;;;;;;;;;5070891;28;20200;-85
2023/08/26 02:26:22;;;;;;;6.27;3.47;;;;;;;;;;5071444;28;20203;-85
2023/08/26 02:28:51;;;;;;;4.30;2.80;;;;;;;;;;5071863;28;20194;-85
2023/08/26 02:31:21;;;;;;;6.10;4.47;;;;;;;;;;5071230;28;20201;-86
2023/08/26 02:33:50;;;;;;;6.20;4.77;;;;;;;;;;5070943;28;20227;-85
2023/08/26 02:36:18;;;;;;;5.00;3.80;;;;;;;;;;5071137;28;20212;-85
2023/08/26 02:38:46;;;;;;;7.57;4.20;;;;;;;;;;5071287;28;20218;-86
2023/08/26 02:41:15;;;;;;;5.43;4.53;;;;;;;;;;5070885;28;20264;-85
2023/08/26 02:43:44;;;;;;;4.93;4.47;;;;;;;;;;5075318;28;20208;-86
2023/08/26 02:46:12;;;;;;;7.03;4.67;;;;;;;;;;5075111;28;20202;-85
2023/08/26 02:48:42;;;;;;;6.83;5.10;;;;;;;;;;5074732;28;20200;-85
2023/08/26 02:51:11;;;;;;;4.83;4.33;;;;;;;;;;5074234;28;20303;-90
2023/08/26 02:53:39;;;;;;;4.80;3.90;;;;;;;;;;5074721;28;20354;-90
2023/08/26 02:56:08;;;;;;;5.13;4.27;;;;;;;;;;5074978;28;20303;-89
2023/08/26 02:58:36;;;;;;;3.87;3.43;;;;;;;;;;5074329;28;20229;-85
2023/08/26 03:01:06;;;;;;;4.27;2.53;;;;;;;;;;5074702;28;20201;-84
2023/08/26 03:03:35;;;;;;;3.53;2.30;;;;;;;;;;5074890;28;20240;-85
2023/08/26 03:06:05;;;;;;;2.30;2.10;;;;;;;;;;5075113;28;20307;-85
2023/08/26 03:08:34;;;;;;;3.00;2.70;;;;;;;;;;5074776;28;20205;-85
2023/08/26 03:11:03;;;;;;;3.30;2.00;;;;;;;;;;5074833;28;20200;-85
2023/08/26 03:13:32;;;;;;;3.47;3.17;;;;;;;;;;5075029;28;20230;-88
2023/08/26 03:16:07;;;;;;;4.80;2.70;;;;;;;;;;5074832;28;20217;-90
2023/08/26 03:18:36;;;;;;;3.07;2.67;;;;;;;;;;5074849;28;20220;-90
2023/08/26 03:21:07;;;;;;;0.70;0.70;;;;;;;;;;5075054;28;20205;-89
2023/08/26 03:23:35;;;;;;;0.73;0.73;;;;;;;;;;5074807;28;20212;-88
2023/08/26 03:26:04;;;;;;;2.67;2.13;;;;;;;;;;5074090;28;20202;-85
2023/08/26 03:28:33;;;;;;;4.07;2.40;;;;;;;;;;5074508;28;20243;-85
2023/08/26 03:31:05;;;;;;;3.67;2.70;;;;;;;;;;5074255;28;20200;-85
2023/08/26 03:33:34;;;;;;;3.33;2.50;;;;;;;;;;5074271;28;20262;-86
2023/08/26 03:36:08;;;;;;;2.97;2.47;;;;;;;;;;5074228;28;20242;-86
2023/08/26 03:38:36;;;;;;;1.60;1.50;;;;;;;;;;5073893;28;20229;-85
2023/08/26 03:41:05;;;;;;;0.50;0.50;;;;;;;;;;5074177;28;20202;-85
2023/08/26 03:43:34;;;;;;;1.30;1.23;;;;;;;;;;5073410;28;20292;-86
2023/08/26 03:46:03;;;;;;;0.70;0.70;;;;;;;;;;5074470;28;20205;-85
2023/08/26 03:48:32;;;;;;;1.00;1.00;;;;;;;;;;5074284;28;20207;-90
2023/08/26 03:51:01;;;;;;;0.63;0.63;;;;;;;;;;5074286;28;20224;-89
2023/08/26 03:53:32;;;;;;;2.97;1.47;;;;;;;;;;5072428;28;20233;-89
2023/08/26 03:56:01;;;;;;;0.40;0.40;;;;;;;;;;5074242;28;20202;-90
2023/08/26 03:58:29;;;;;;;3.40;2.80;;;;;;;;;;5074519;28;20209;-90
2023/08/26 04:01:02;;;;;;;3.83;3.43;;;;;;;;;;5073827;28;20205;-90
2023/08/26 04:03:30;;;;;;;5.27;3.77;;;;;;;;;;5073822;28;20299;-91
2023/08/26 04:06:00;;;;;;;6.30;3.70;;;;;;;;;;5073884;28;20303;-89
2023/08/26 04:08:31;;;;;;;5.87;4.57;;;;;;;;;;5073659;28;20197;-88
2023/08/26 04:11:00;;;;;;;5.00;4.40;;;;;;;;;;5073648;28;20207;-89
2023/08/26 04:13:29;;;;;;;4.70;4.10;;;;;;;;;;5073575;28;20205;-89
2023/08/26 04:15:58;;;;;;;5.30;4.17;;;;;;;;;;5073919;28;20204;-85
2023/08/26 04:18:27;;;;;;;5.17;4.67;;;;;;;;;;5073202;28;20226;-86
2023/08/26 04:20:55;;;;;;;7.07;5.33;;;;;;;;;;5073528;28;20196;-85
2023/08/26 04:23:24;;;;;;;4.73;3.67;;;;;;;;;;5073066;28;20211;-85
2023/08/26 04:25:59;;;;;;;5.17;4.50;;;;;;;;;;5073582;28;20300;-89
2023/08/26 04:28:28;;;;;;;4.97;4.57;;;;;;;;;;5073119;28;20203;-90
2023/08/26 04:30:58;;;;;;;7.00;4.20;;;;;;;;;;5073549;28;20254;-90
2023/08/26 04:33:27;;;;;;;6.13;5.53;;;;;;;;;;5072750;28;20224;-89
2023/08/26 04:35:55;;;;;;;5.53;4.60;;;;;;;;;;5072751;28;20256;-89
2023/08/26 04:38:24;;;;;;;3.70;3.00;;;;;;;;;;5072782;28;20222;-89
2023/08/26 04:40:54;;;;;;;1.23;1.13;;;;;;;;;;5073266;28;20262;-89
2023/08/26 04:43:22;;;;;;;6.87;5.07;;;;;;;;;;5073081;28;20196;-89
2023/08/26 04:45:52;;;;;;;9.63;6.13;;;;;;;;;;5072535;28;20208;-89
2023/08/26 04:48:21;;;;;;;11.60;7.83;;;;;;;;;;5072954;28;20207;-89
2023/08/26 04:50:49;;;;;;;8.50;7.63;;;;;;;;;;5072915;28;20243;-89
2023/08/26 04:53:18;;;;;;;5.93;3.87;;;;;;;;;;5072659;28;20500;-90
2023/08/26 04:55:50;;;;;;;11.47;10.33;;;;;;;;;;5073075;28;20204;-89
2023/08/26 04:58:21;;;;;;;13.10;10.93;;;;;;;;;;5072933;28;20234;-90
2023/08/26 05:00:50;;;;;;;13.47;11.73;;;;;;;;;;5072419;28;20259;-88
2023/08/26 05:03:19;;;;;;;14.87;13.40;;;;;;;;;;5071978;28;20264;-89
2023/08/26 05:05:47;;;;;;;12.97;11.67;;;;;;;;;;5072341;28;20239;-89
2023/08/26 05:08:16;;;;;;;15.23;11.53;;;;;;;;;;5072697;28;20210;-89
2023/08/26 05:10:44;;;;;;;16.50;14.83;;;;;;;;;;5072726;28;20246;-89
2023/08/26 05:13:16;;;;;;;12.30;9.30;;;;;;;;;;5072346;28;20238;-89
2023/08/26 05:15:46;;;;;;;15.90;14.17;;;;;;;;;;5072399;28;20222;-90
2023/08/26 05:18:16;;;;;;;16.13;14.10;;;;;;;;;;5072456;28;20213;-89
2023/08/26 05:20:45;;;;;;;14.57;12.30;;;;;;;;;;5072590;28;20198;-90
2023/08/26 05:23:14;;;;;;;14.80;12.17;;;;;;;;;;5072608;28;20200;-90
2023/08/26 05:25:45;;;;;;;8.40;5.53;;;;;;;;;;5071901;28;20197;-90
2023/08/26 05:28:14;;;;;;;4.73;3.83;;;;;;;;;;5072144;28;20219;-90
2023/08/26 05:30:43;;;;;;;4.93;2.97;;;;;;;;;;5072507;28;20300;-89
2023/08/26 05:33:13;;;;;;;6.10;3.57;;;;;;;;;;5072492;28;20228;-90
2023/08/26 05:35:44;;;;;;;2.20;1.73;;;;;;;;;;5072181;28;20205;-91
2023/08/26 05:38:13;;;;;;;5.70;2.27;;;;;;;;;;5072185;28;20217;-89
2023/08/26 05:40:44;;;;;;;5.80;2.90;;;;;;;;;;5071856;28;20228;-90
2023/08/26 05:43:13;;;;;;;1.17;1.13;;;;;;;;;;5072682;28;20205;-91
2023/08/26 05:45:42;;;;;;;0.40;0.40;;;;;;;;;;5072298;28;20209;-85
2023/08/26 05:48:10;;;;;;;4.77;2.63;;;;;;;;;;5071361;28;20215;-85
2023/08/26 05:50:40;;;;;;;6.63;4.53;;;;;;;;;;5071752;28;20288;-85
2023/08/26 05:53:09;;;;;;;8.27;7.07;;;;;;;;;;5071553;28;20252;-85
2023/08/26 05:55:37;;;;;;;12.97;10.20;;;;;;;;;;5070983;28;20201;-85
2023/08/26 05:58:06;;;;;;;13.80;8.87;;;;;;;;;;5071556;28;20229;-84
2023/08/26 06:00:34;;;;;;;12.60;8.87;;;;;;;;;;5071588;28;20229;-85
2023/08/26 06:03:03;;;;;;;10.07;6.23;;;;;;;;;;5071769;28;20213;-84
2023/08/26 06:05:31;;;;;;;10.17;7.10;;;;;;;;;;5071143;28;20255;-85
2023/08/26 06:08:01;;;;;;;13.30;8.03;;;;;;;;;;5071244;28;20260;-84
2023/08/26 06:10:31;;;;;;;21.07;11.97;;;;;;;;;;5071923;28;20202;-84
2023/08/26 06:13:00;;;;;;;4.53;3.33;;;;;;;;;;5071424;28;20206;-84
2023/08/26 06:15:28;;;;;;;0.43;0.43;;;;;;;;;;5070867;28;20198;-84
2023/08/26 06:17:57;;;;;;;5.87;5.30;;;;;;;;;;5075091;28;20208;-84
2023/08/26 06:20:26;;;;;;;5.13;4.10;;;;;;;;;;5075117;28;20266;-85
2023/08/26 06:22:54;;;;;;;1.77;1.67;;;;;;;;;;5075296;28;20231;-85
2023/08/26 06:25:24;;;;;;;17.20;13.23;;;;;;;;;;5074868;28;20212;-85
2023/08/26 06:27:53;;;;;;;14.20;9.03;;;;;;;;;;5075407;28;20208;-85
2023/08/26 06:30:23;;;;;;;16.13;8.80;;;;;;;;;;5075083;28;20286;-85
2023/08/26 06:32:51;;;;;;;12.67;7.50;;;;;;;;;;5075077;28;20230;-85
2023/08/26 06:35:26;;;;;;;18.17;11.67;;;;;;;;;;5075257;28;20208;-84
2023/08/26 06:37:55;;;;;;;10.53;6.90;;;;;;;;;;5075268;28;20208;-84
2023/08/26 06:40:25;;;;;;;12.43;6.87;;;;;;;;;;5074940;28;20214;-84
2023/08/26 06:42:53;;;;;;;14.83;8.27;;;;;;;;;;5075579;28;20292;-84
2023/08/26 06:45:22;;;;;;;11.57;8.23;;;;;;;;;;5074874;28;20219;-84
2023/08/26 06:47:50;;;;;;;3.07;2.73;;;;;;;;;;5075168;28;20209;-85
2023/08/26 06:50:20;;;;;;;10.20;6.93;;;;;;;;;;5075112;28;20288;-85
2023/08/26 06:52:49;;;;;;;14.67;10.30;;;;;;;;;;5074682;28;20247;-85
2023/08/26 06:55:17;;;;;;;6.77;4.97;;;;;;;;;;5074628;28;20194;-85
2023/08/26 06:57:47;;;;;;;13.00;7.90;;;;;;;;;;5074688;28;20274;-84
2023/08/26 07:00:17;;;;;;;3.70;2.57;;;;;;;;;;5074762;28;20229;-85
2023/08/26 07:02:46;;;;;;;4.07;3.07;;;;;;;;;;5074975;28;20200;-84
2023/08/26 07:05:15;;;;;;;2.00;1.83;;;;;;;;;;5074487;28;20196;-84
2023/08/26 07:07:44;;;;;;;4.03;2.07;;;;;;;;;;5074038;28;20212;-84
2023/08/26 07:10:12;;;;;;;5.00;4.00;;;;;;;;;;5074595;28;20232;-85
2023/08/26 07:12:41;;;;;;;0.97;0.97;;;;;;;;;;5074421;28;20197;-84
2023/08/26 07:15:11;;;;;;;10.70;7.63;;;;;;;;;;5073764;28;20197;-84
2023/08/26 07:17:39;;;;;;;13.80;8.27;;;;;;;;;;5073808;28;20200;-84
2023/08/26 07:20:10;;;;;;;8.73;7.27;;;;;;;;;;5074146;28;20246;-84
2023/08/26 07:22:39;;;;;;;7.17;4.50;;;;;;;;;;5074399;28;20204;-84
2023/08/26 07:25:08;;;;;;;4.10;3.03;;;;;;;;;;5073660;28;20204;-85
2023/08/26 07:27:38;;;;;;;2.33;2.10;;;;;;;;;;5074030;28;20212;-85
2023/08/26 07:30:07;;;;;;;5.73;2.20;;;;;;;;;;5074426;28;20224;-85
2023/08/26 07:32:38;;;;;;;3.97;2.57;;;;;;;;;;5073812;28;20215;-85
2023/08/26 07:35:08;;;;;;;3.50;2.47;;;;;;;;;;5073777;28;20315;-85
2023/08/26 07:37:36;;;;;;;3.37;2.57;;;;;;;;;;5074059;28;20200;-84
2023/08/26 07:40:06;;;;;;;5.23;3.23;;;;;;;;;;5073815;28;20304;-84
2023/08/26 07:42:35;;;;;;;5.73;3.50;;;;;;;;;;5074012;28;20200;-84
2023/08/26 07:45:04;;;;;;;5.67;4.00;;;;;;;;;;5073396;28;20207;-85
2023/08/26 07:47:33;;;;;;;3.50;3.20;;;;;;;;;;5074102;28;20204;-84
2023/08/26 07:50:06;;;;;;;7.77;4.40;;;;;;;;;;5073984;28;20201;-84
2023/08/26 07:52:34;;;;;;;10.80;4.40;;;;;;;;;;5073099;28;20224;-85
2023/08/26 07:55:03;;;;;;;5.63;2.70;;;;;;;;;;5073899;28;20202;-85
2023/08/26 07:57:31;;;;;;;7.00;4.40;;;;;;;;;;5073639;28;20200;-84
2023/08/26 08:00:00;;;;;;;6.17;3.33;;;;;;;;;;5073428;28;20229;-85
2023/08/26 08:02:28;;;;;;;4.90;2.93;;;;;;;;;;5073204;28;20204;-84
2023/08/26 08:04:57;;;;;;;6.63;3.13;;;;;;;;;;5073294;28;20203;-84
2023/08/26 08:07:28;;;;;;;7.40;3.80;;;;;;;;;;5073228;28;20196;-85
2023/08/26 08:09:56;;;;;;;5.77;3.83;;;;;;;;;;5073173;28;20240;-85
2023/08/26 08:12:25;;;;;;;3.10;2.80;;;;;;;;;;5073633;28;20200;-84
2023/08/26 08:14:56;;;;;;;5.47;3.40;;;;;;;;;;5073676;28;20201;-84
2023/08/26 08:17:25;;;;;;;3.97;2.80;;;;;;;;;;5073269;28;20207;-88
2023/08/26 08:19:53;;;;;;;2.57;2.37;;;;;;;;;;5073211;28;20215;-89
2023/08/26 08:22:34;;;;;;;3.17;2.87;;;;;;;;;;5073374;28;20217;-88
2023/08/26 08:25:04;;;;;;;2.97;1.50;;;;;;;;;;5073643;28;20203;-88
2023/08/26 08:27:33;;;;;;;2.90;1.93;;;;;;;;;;5072620;28;20262;-89
2023/08/26 08:30:02;;;;;;;3.20;2.13;;;;;;;;;;5073050;28;20218;-89
2023/08/26 08:32:31;;;;;;;1.97;1.17;;;;;;;;;;5073250;28;20196;-88
2023/08/26 08:35:00;;;;;;;1.87;1.50;;;;;;;;;;5072596;28;20205;-89
2023/08/26 08:37:28;;;;;;;2.87;1.80;;;;;;;;;;5072749;28;20205;-89
2023/08/26 08:39:57;;;;;;;0.90;0.90;;;;;;;;;;5072539;28;20219;-89
2023/08/26 08:42:27;;;;;;;1.47;1.00;;;;;;;;;;5072607;28;20204;-88
2023/08/26 08:44:56;;;;;;;3.70;1.90;;;;;;;;;;5072272;28;20272;-89
2023/08/26 08:47:25;;;;;;;4.40;1.87;;;;;;;;;;5072345;28;20263;-89
2023/08/26 08:49:54;;;;;;;3.63;2.10;;;;;;;;;;5072784;28;20206;-89
2023/08/26 08:52:23;;;;;;;6.27;1.77;;;;;;;;;;5072531;28;20267;-88
2023/08/26 08:54:51;;;;;;;2.20;1.30;;;;;;;;;;5070621;28;20236;-88
2023/08/26 08:57:23;;;;;;;2.37;1.70;;;;;;;;;;5072777;28;20215;-87
2023/08/26 08:59:54;;;;;;;3.33;1.73;;;;;;;;;;5072932;28;20552;-89
2023/08/26 09:02:23;;;;;;;1.97;1.40;;;;;;;;;;5071848;28;20225;-89
2023/08/26 09:04:51;;;;;;;2.53;1.43;;;;;;;;;;5072425;28;20240;-88
2023/08/26 09:07:21;;;;;;;4.60;2.30;;;;;;;;;;5072287;28;20201;-88
2023/08/26 09:09:49;;;;;;;1.43;1.03;;;;;;;;;;5072103;28;20208;-89
2023/08/26 09:12:30;;;;;;;0.70;0.70;;;;;;;;;;5072045;28;20204;-88
2023/08/26 09:15:00;;;;;;;1.80;1.70;;;;;;;;;;5072543;28;20209;-88
2023/08/26 09:17:30;;;;;;;3.80;1.73;;;;;;;;;;5072273;28;20227;-89
2023/08/26 09:19:59;;;;;;;2.03;1.27;;;;;;;;;;5071870;28;20266;-89
2023/08/26 09:22:28;;;;;;;2.53;2.33;;;;;;;;;;5071969;28;20221;-89
2023/08/26 09:24:58;;;;;;;0.67;0.67;;;;;;;;;;5072166;28;20212;-89
2023/08/26 09:27:26;;;;;;;3.53;2.00;;;;;;;;;;5071820;28;20211;-89
2023/08/26 09:29:55;;;;;;;3.13;1.33;;;;;;;;;;5071588;28;20201;-89
2023/08/26 09:32:35;;;;;;;5.17;1.60;;;;;;;;;;5071657;28;20212;-88
2023/08/26 09:35:10;;;;;;;4.83;1.47;;;;;;;;;;5072034;28;20213;-85
2023/08/26 09:37:38;;;;;;;5.37;1.50;;;;;;;;;;5071325;28;20192;-84
2023/08/26 09:40:07;;;;;;;4.07;1.30;;;;;;;;;;5071606;28;20204;-84
2023/08/26 09:42:36;;;;;;;2.50;1.50;;;;;;;;;;5071490;28;20235;-84
2023/08/26 09:45:07;;;;;;;2.97;1.50;;;;;;;;;;5071701;28;20197;-84
2023/08/26 09:47:38;;;;;;;3.03;1.60;;;;;;;;;;5071570;28;20205;-84
2023/08/26 09:50:08;;;;;;;2.00;1.30;;;;;;;;;;5071780;28;20224;-84
2023/08/26 09:52:43;;;;;;;4.73;1.37;;;;;;;;;;5070834;28;20225;-84
2023/08/26 09:55:12;;;;;;;0.77;0.77;;;;;;;;;;5070462;28;20255;-84
2023/08/26 09:57:41;;;;;;;1.60;1.07;;;;;;;;;;5071539;28;20201;-84
2023/08/26 10:00:11;;;;;;;1.47;1.37;;;;;;;;;;5071773;28;20212;-85
2023/08/26 10:02:48;;;;;;;2.97;1.80;;;;;;;;;;5071197;28;20229;-86
2023/08/26 10:05:20;;;;;;;6.90;2.07;;;;;;;;;;5070988;28;20228;-85
2023/08/26 10:07:49;;;;;;;3.03;1.57;;;;;;;;;;5071437;28;20285;-84
2023/08/26 10:10:28;;;;;;;0.70;0.70;;;;;;;;;;5071775;28;20343;-84
2023/08/26 10:12:57;;;;;;;1.70;1.47;;;;;;;;;;5071372;28;20288;-88
2023/08/26 10:15:32;;;;;;;1.90;1.03;;;;;;;;;;5071813;28;20192;-90
2023/08/26 10:18:07;;;;;;;1.63;1.10;;;;;;;;;;5074067;28;20201;-90
2023/08/26 10:20:36;;;;;;;0.40;0.40;;;;;;;;;;5073077;28;20209;-89
2023/08/26 10:23:09;;;;;;;0.30;0.30;;;;;;;;;;5072898;28;20239;-90
2023/08/26 10:25:41;;;;;;;0.40;0.40;;;;;;;;;;5073814;28;20216;-90
2023/08/26 10:28:11;;;;;;;0.40;0.40;;;;;;;;;;5074948;28;20198;-89
2023/08/26 10:30:53;;;;;;;0.40;0.40;;;;;;;;;;5079509;28;20198;-89
2023/08/26 10:33:54;;;;;;;0.40;0.40;;;;;;;;;;5075792;28;20194;-90
2023/08/26 10:36:59;;;;;;;0.40;0.40;;;;;;;;;;5089450;28;20220;-90
2023/08/26 10:39:39;;;;;;;0.40;0.40;;;;;;;;;;5087926;28;20200;-91
2023/08/26 10:42:13;;;;;;;0.40;0.40;;;;;;;;;;5085015;28;20236;-90
2023/08/26 10:44:47;;;;;;;2.20;2.20;;;;;;;;;;5080780;28;20218;-90
2023/08/26 10:47:30;;;;;;;0.40;0.40;;;;;;;;;;5074825;28;20220;-89
2023/08/26 10:53:19;;;;;;;0.30;0.30;;;;;;;;;;5189811;27;20542;-88
2023/08/26 10:55:50;;;;;;;0.30;0.30;;;;;;;;;;5172762;27;20201;-87
2023/08/26 10:58:19;;;;;;;0.40;0.40;;;;;;;;;;5172224;27;20204;-88
2023/08/26 11:00:49;;;;;;;0.30;0.30;;;;;;;;;;5172643;27;20199;-87
2023/08/26 11:03:18;;;;;;;0.30;0.30;;;;;;;;;;5171796;27;20296;-88
2023/08/26 11:05:48;;;;;;;0.30;0.30;;;;;;;;;;5172055;27;20198;-87
2023/08/26 11:08:18;;;;;;;0.40;0.40;;;;;;;;;;5171760;27;20201;-87
2023/08/26 11:10:46;;;;;;;0.30;0.30;;;;;;;;;;5172030;27;20198;-87
2023/08/26 11:13:18;;;;;;;0.30;0.30;;;;;;;;;;5171557;27;20185;-87
2023/08/26 11:15:47;;;;;;;0.40;0.40;;;;;;;;;;5171409;27;20211;-88
2023/08/26 11:18:16;;;;;;;0.30;0.30;;;;;;;;;;5171622;27;20226;-87
2023/08/26 11:20:45;;;;;;;0.30;0.30;;;;;;;;;;5171935;27;20232;-88
2023/08/26 11:23:14;;;;;;;0.30;0.30;;;;;;;;;;5177396;27;20202;-89
2023/08/26 11:25:49;;;;;;;0.30;0.30;;;;;;;;;;5173423;27;20224;-89
2023/08/26 11:28:17;;;;;;;0.30;0.30;;;;;;;;;;5172231;27;20194;-88
2023/08/26 11:30:46;;;;;;;0.40;0.40;;;;;;;;;;5171464;27;20233;-88
2023/08/26 11:33:20;;;;;;;0.40;0.40;;;;;;;;;;5171548;27;20297;-88
2023/08/26 11:35:50;;;;;;;0.40;0.40;;;;;;;;;;5152783;27;20230;-88
2023/08/26 11:38:35;;;;;;;0.40;0.40;;;;;;;;;;5171521;27;20204;-88
2023/08/26 11:41:05;;;;;;;0.40;0.40;;;;;;;;;;5170955;27;20201;-88
2023/08/26 11:43:35;;;;;;;0.40;0.40;;;;;;;;;;5171031;27;20205;-88
2023/08/26 11:46:05;;;;;;;0.40;0.40;;;;;;;;;;5170498;27;20203;-87
2023/08/26 11:48:36;;;;;;;0.40;0.40;;;;;;;;;;5170768;27;20225;-88
2023/08/26 11:51:06;;;;;;;0.40;0.40;;;;;;;;;;5170147;27;20557;-87
2023/08/26 11:53:36;;;;;;;0.40;0.40;;;;;;;;;;5170678;27;20300;-87
2023/08/26 11:56:06;;;;;;;0.40;0.40;;;;;;;;;;5170015;27;20301;-87
2023/08/26 11:58:37;;;;;;;0.40;0.40;;;;;;;;;;5170438;27;20201;-88
2023/08/26 12:01:07;;;;;;;0.40;0.40;;;;;;;;;;5169709;27;20265;-87
2023/08/26 12:03:42;;;;;;;0.40;0.40;;;;;;;;;;5159893;27;20202;-87
2023/08/26 12:06:15;;;;;;;0.30;0.30;;;;;;;;;;5156080;27;20195;-87
2023/08/26 12:08:44;;;;;;;0.30;0.30;;;;;;;;;;5155702;27;20205;-87
2023/08/26 12:11:16;;;;;;;0.30;0.30;;;;;;;;;;5156122;27;20245;-87
2023/08/26 12:13:45;;;;;;;0.30;0.30;;;;;;;;;;5156197;27;20214;-87
2023/08/26 12:16:14;;;;;;;0.40;0.40;;;;;;;;;;5155952;27;20202;-87
2023/08/26 12:18:43;;;;;;;0.40;0.40;;;;;;;;;;5155988;27;20203;-87
2023/08/26 12:21:11;;;;;;;0.40;0.40;;;;;;;;;;5156046;27;20197;-87
2023/08/26 12:23:40;;;;;;;0.40;0.40;;;;;;;;;;5155955;27;20225;-87
2023/08/26 12:26:12;;;;;;;0.40;0.40;;;;;;;;;;5155453;27;20199;-86
2023/08/26 12:28:43;;;;;;;0.40;0.40;;;;;;;;;;5156220;27;20210;-87
2023/08/26 12:31:12;;;;;;;0.40;0.40;;;;;;;;;;5156124;27;20207;-87
2023/08/26 12:33:41;;;;;;;0.40;0.40;;;;;;;;;;5155889;27;20223;-87
2023/08/26 12:36:27;;;;;;;0.30;0.30;;;;;;;;;;5155127;27;20195;-87
2023/08/26 12:38:55;;;;;;;0.30;0.30;;;;;;;;;;5155654;27;20226;-87
2023/08/26 12:41:24;;;;;;;0.40;0.40;;;;;;;;;;5155591;27;20296;-87
2023/08/26 12:43:55;;;;;;;0.30;0.30;;;;;;;;;;5154940;27;20202;-87
2023/08/26 12:46:23;;;;;;;0.40;0.40;;;;;;;;;;5155041;27;20292;-87
2023/08/26 12:48:52;;;;;;;0.30;0.30;;;;;;;;;;5155126;27;20216;-87
2023/08/26 12:51:23;;;;;;;0.40;0.40;;;;;;;;;;5155213;27;20234;-87
2023/08/26 12:53:52;;;;;;;0.40;0.40;;;;;;;;;;5155322;27;20236;-86
2023/08/26 12:56:21;;;;;;;0.30;0.30;;;;;;;;;;5154950;27;20226;-87
2023/08/26 12:58:51;;;;;;;0.30;0.30;;;;;;;;;;5155391;27;20206;-87
2023/08/26 13:01:21;;;;;;;0.30;0.30;;;;;;;;;;5154971;27;20195;-87
2023/08/26 13:03:50;;;;;;;0.30;0.30;;;;;;;;;;5155304;27;20195;-87
2023/08/26 13:06:18;;;;;;;0.30;0.30;;;;;;;;;;5155162;27;20199;-88
2023/08/26 13:08:46;;;;;;;0.30;0.30;;;;;;;;;;5155054;27;20195;-88
2023/08/26 13:11:15;;;;;;;0.30;0.30;;;;;;;;;;5155039;27;20202;-87
2023/08/26 13:13:44;;;;;;;0.30;0.30;;;;;;;;;;5154884;27;20217;-88
2023/08/26 13:16:13;;;;;;;0.20;0.20;;;;;;;;;;5153876;27;20195;-88
2023/08/26 13:18:43;;;;;;;0.30;0.30;;;;;;;;;;5155163;27;20195;-88
2023/08/26 13:21:12;;;;;;;0.30;0.30;;;;;;;;;;5155069;27;20198;-88
2023/08/26 13:23:41;;;;;;;0.30;0.30;;;;;;;;;;5155022;27;20196;-88
2023/08/26 13:26:09;;;;;;;0.20;0.20;;;;;;;;;;5154708;27;20228;-88
2023/08/26 13:28:38;;;;;;;0.30;0.30;;;;;;;;;;5154734;27;20200;-88
2023/08/26 13:31:07;;;;;;;0.30;0.30;;;;;;;;;;5155094;27;20205;-90
2023/08/26 13:33:35;;;;;;;0.23;0.23;;;;;;;;;;5154990;27;20220;-88
2023/08/26 13:36:05;;;;;;;0.30;0.30;;;;;;;;;;5154878;27;20207;-88
2023/08/26 13:38:34;;;;;;;0.30;0.30;;;;;;;;;;5154422;27;20209;-88
2023/08/26 13:41:03;;;;;;;0.20;0.20;;;;;;;;;;5154456;27;20232;-89
2023/08/26 13:43:31;;;;;;;0.30;0.30;;;;;;;;;;5154921;27;20228;-88
2023/08/26 13:46:00;;;;;;;0.30;0.30;;;;;;;;;;5153512;27;20201;-89
2023/08/26 13:48:28;;;;;;;0.30;0.30;;;;;;;;;;5154597;27;20205;-89
2023/08/26 13:50:57;;;;;;;0.30;0.30;;;;;;;;;;5154055;27;20242;-89
2023/08/26 13:53:27;;;;;;;0.30;0.30;;;;;;;;;;5153986;27;20304;-89
2023/08/26 13:55:57;;;;;;;0.30;0.30;;;;;;;;;;5154020;27;20286;-88
2023/08/26 13:58:26;;;;;;;0.20;0.20;;;;;;;;;;5154301;27;20453;-88
2023/08/26 14:00:56;;;;;;;0.30;0.30;;;;;;;;;;5154343;27;20184;-88
2023/08/26 14:03:25;;;;;;;0.30;0.30;;;;;;;;;;5154217;27;20201;-89
2023/08/26 14:05:54;;;;;;;0.30;0.30;;;;;;;;;;5154036;27;20206;-89
2023/08/26 14:08:22;;;;;;;0.30;0.30;;;;;;;;;;5154566;27;20264;-89
2023/08/26 14:10:53;;;;;;;0.30;0.30;;;;;;;;;;5154356;27;20219;-89
2023/08/26 14:13:24;;;;;;;0.30;0.30;;;;;;;;;;5153317;27;20256;-89
2023/08/26 14:15:54;;;;;;;0.30;0.30;;;;;;;;;;5154392;27;20294;-89
2023/08/26 14:18:22;;;;;;;0.30;0.30;;;;;;;;;;5154185;27;20200;-89
2023/08/26 14:20:51;;;;;;;0.30;0.30;;;;;;;;;;5153870;27;20203;-88
2023/08/26 14:23:20;;;;;;;0.30;0.30;;;;;;;;;;5153414;27;20194;-87
2023/08/26 14:25:48;;;;;;;0.30;0.30;;;;;;;;;;5153698;27;20205;-86
2023/08/26 14:28:18;;;;;;;0.30;0.30;;;;;;;;;;5153748;27;20206;-87
2023/08/26 14:30:46;;;;;;;0.30;0.30;;;;;;;;;;5152859;27;20208;-86
2023/08/26 14:33:17;;;;;;;0.30;0.30;;;;;;;;;;5153753;27;20244;-86
2023/08/26 14:35:49;;;;;;;0.30;0.30;;;;;;;;;;5153622;27;20296;-85
2023/08/26 14:38:18;;;;;;;0.30;0.30;;;;;;;;;;5153331;27;20195;-86
2023/08/26 14:40:48;;;;;;;0.30;0.30;;;;;;;;;;5153629;27;20201;-85
2023/08/26 14:43:18;;;;;;;0.30;0.30;;;;;;;;;;5153556;27;20293;-85
2023/08/26 14:45:48;;;;;;;0.30;0.30;;;;;;;;;;5153384;27;20196;-85
2023/08/26 14:48:17;;;;;;;0.30;0.30;;;;;;;;;;5152987;27;20196;-87
2023/08/26 14:50:51;;;;;;;0.30;0.30;;;;;;;;;;5153489;27;20208;-85
2023/08/26 14:53:20;;;;;;;0.30;0.30;;;;;;;;;;5153030;27;20222;-89
2023/08/26 14:55:48;;;;;;;0.30;0.30;;;;;;;;;;5153395;27;20205;-89
2023/08/26 14:58:18;;;;;;;0.30;0.30;;;;;;;;;;5152915;27;20198;-85
2023/08/26 15:00:47;;;;;;;0.30;0.30;;;;;;;;;;5153304;27;20191;-85